Limoges, France

1:43 PM CEST on October 23, 2014 (GMT +0200)
Bellegarde | Change Station
CLOSE
Current Station
Airport
Location: Limoges,
Elevation: 1319 ft
Nearby Weather Stations

Elev 1319 ft 45.86 °N, 1.17 °E | Updated 13 minutes ago

Mostly Cloudy
Mostly Cloudy
54 °F
Feels Like 54 °F
N
5
Wind Variable Wind from NW

Today
High -- | Low -- °F
--% Chance of Precip.
Yesterday
High -- | Low -- °F
Precip. -- in
8:22 AM 6:55 PM
Waning Crescent, 0% visible
Pressure 30.30 in
Visibility 6.2 miles
Clouds Mostly Cloudy 2700 ft
Dew Point 41 °F
Humidity 62%
Rainfall 0.00 in
Snow Depth Not available.
UV 2 out of 12
Pollen Not available.
Air Quality Not available.
Flu Activity Not available.
METAR LFBL 231130Z AUTO 31004KT 270V360 9999 BKN027 12/05 Q1026

More Conditions Fewer Conditions

Pressure 30.30 in
Visibility 6.2 miles
Clouds Mostly Cloudy 2700 ft
Dew Point 41 °F
Humidity 62%
Rainfall 0.00 in
Snow Depth Not available.
UV 2 out of 12
Pollen Not available.
Air Quality Not available.
Flu Activity Not available.
METAR LFBL 231130Z AUTO 31004KT 270V360 9999 BKN027 12/05 Q1026

More Conditions Fewer Conditions

10-Day Weather Forecast

Almanac

Astronomy

Oct. 23, 2014 Rise Set
Actual Time 8:22 AM CEST 6:55 PM CEST
Civil Twilight 7:52 AM CEST 7:26 PM CEST
Nautical Twilight 7:17 AM CEST 8:01 PM CEST
Astronomical Twilight 6:42 AM CEST 8:35 PM CEST
Moon 7:45 AM CEST 6:49 PM CEST
Length of Visible Light 11h 34m
Length of Day
10h 33m
Tomorrow will be 3m 2s shorter.
Waning Crescent, 0% of the Moon is Illuminated
Today
Waning Crescent
Oct 23
New
Oct 30
First Quarter
Nov 6
Full
Nov 14
Last Quarter

Yesterday's Extremes

Country Highs Country Lows

Community

WunderPhotos

Upload Photos

1,764,209 photos uploaded!

Nearby

Snow Depth

Not available.

Earthquake Activity

City Distance Mag. Time & Date
No recent earthquake activity has been reported nearby.
Minimum magnitude displayed is 2.5.

Coastal Water Temperatures

Place Temperature
No Stations Reporting

Nearby Weather Stations